createdAt,value
2018-01-15T00:01:53.250Z,13.23
2018-01-15T00:04:20.733Z,14.20
2018-01-15T00:06:48.967Z,14.37
2018-01-15T00:09:16.432Z,13.23
2018-01-15T00:11:43.901Z,13.60
2018-01-15T00:14:11.365Z,14.13
2018-01-15T00:16:39.605Z,13.33
2018-01-15T00:19:07.080Z,13.37
2018-01-15T00:21:34.550Z,13.00
2018-01-15T00:24:02.028Z,13.47
2018-01-15T00:26:30.265Z,14.07
2018-01-15T00:28:57.746Z,14.27
2018-01-15T00:31:25.226Z,12.10
2018-01-15T00:33:52.707Z,13.27
2018-01-15T00:36:20.170Z,12.97
2018-01-15T00:38:47.650Z,14.13
2018-01-15T00:41:15.124Z,12.70
2018-01-15T00:43:42.607Z,14.87
2018-01-15T00:46:10.837Z,12.07
2018-01-15T00:48:38.320Z,12.80
2018-01-15T00:51:05.778Z,12.60
2018-01-15T00:53:33.244Z,12.27
2018-01-15T00:56:00.714Z,13.93
2018-01-15T00:58:28.962Z,14.30
2018-01-15T01:00:56.429Z,14.40
2018-01-15T01:03:23.909Z,14.67
2018-01-15T01:05:52.147Z,14.30
2018-01-15T01:08:19.628Z,14.20
2018-01-15T01:10:47.091Z,14.80
2018-01-15T01:13:15.343Z,14.33
2018-01-15T01:15:42.814Z,13.53
2018-01-15T01:18:10.293Z,13.60
2018-01-15T01:20:38.539Z,14.20
2018-01-15T01:23:06.000Z,14.23
2018-01-15T01:25:33.474Z,14.43
2018-01-15T01:28:02.106Z,13.40
2018-01-15T01:30:29.575Z,14.03
2018-01-15T01:32:57.040Z,15.83
2018-01-15T01:35:24.522Z,14.33
2018-01-15T01:37:51.998Z,14.60
2018-01-15T01:40:20.233Z,13.83
2018-01-15T01:42:47.718Z,13.70
2018-01-15T01:45:15.179Z,14.47
2018-01-15T01:47:42.659Z,14.37
2018-01-15T01:50:10.891Z,12.53
2018-01-15T01:52:38.371Z,13.50
2018-01-15T01:55:05.918Z,15.30
2018-01-15T01:57:33.381Z,14.77
2018-01-15T02:00:00.875Z,15.60
2018-01-15T02:02:29.102Z,13.70
2018-01-15T02:04:56.586Z,15.30
2018-01-15T02:07:24.827Z,15.30
2018-01-15T02:09:52.318Z,14.77
2018-01-15T02:12:19.797Z,15.00
2018-01-15T02:14:47.292Z,14.13
2018-01-15T02:17:14.762Z,13.87
2018-01-15T02:19:42.241Z,14.80
2018-01-15T02:22:09.711Z,14.60
2018-01-15T02:24:37.966Z,14.70
2018-01-15T02:27:05.444Z,14.27
2018-01-15T02:29:33.686Z,15.27
2018-01-15T02:32:01.167Z,14.60
2018-01-15T02:34:28.653Z,15.88
2018-01-15T02:36:56.896Z,14.87
2018-01-15T02:39:24.377Z,14.37
2018-01-15T02:41:52.607Z,14.47
2018-01-15T02:44:20.086Z,15.63
2018-01-15T02:46:47.574Z,14.50
2018-01-15T02:49:15.823Z,14.00
2018-01-15T02:51:43.282Z,13.53
2018-01-15T02:54:10.762Z,13.77
2018-01-15T02:56:38.990Z,13.17
2018-01-15T02:59:06.462Z,13.80
2018-01-15T03:01:33.939Z,14.60
2018-01-15T03:04:01.405Z,15.10
2018-01-15T03:06:29.646Z,16.00
2018-01-15T03:08:57.130Z,13.77
2018-01-15T03:11:24.594Z,14.17
2018-01-15T03:13:52.074Z,14.30
2018-01-15T03:16:20.314Z,14.93
2018-01-15T03:18:47.805Z,13.93
2018-01-15T03:21:16.047Z,13.10
2018-01-15T03:23:44.291Z,12.17
2018-01-15T03:26:11.778Z,14.73
2018-01-15T03:28:39.258Z,12.30
2018-01-15T03:31:07.496Z,13.70
2018-01-15T03:33:34.978Z,12.93
2018-01-15T03:36:02.445Z,13.57
2018-01-15T03:38:30.706Z,14.17
2018-01-15T03:40:58.179Z,14.07
2018-01-15T03:43:25.669Z,14.10
2018-01-15T03:45:53.146Z,13.50
2018-01-15T03:48:20.635Z,14.77
2018-01-15T03:50:48.112Z,14.80
2018-01-15T03:53:15.612Z,13.23
2018-01-15T03:55:43.102Z,15.27
2018-01-15T03:58:10.560Z,14.97
2018-01-15T04:00:38.033Z,15.20
2018-01-15T04:03:05.506Z,14.83
2018-01-15T04:05:32.986Z,15.70
2018-01-15T04:08:01.221Z,16.20
2018-01-15T04:10:28.709Z,17.53
2018-01-15T04:12:56.945Z,17.20
2018-01-15T04:15:24.421Z,17.80
2018-01-15T04:17:51.902Z,17.10
2018-01-15T04:20:20.164Z,16.40
2018-01-15T04:22:47.647Z,15.40
2018-01-15T04:25:15.899Z,16.10
2018-01-15T04:27:44.434Z,14.83
2018-01-15T04:30:11.970Z,14.73
2018-01-15T04:32:39.522Z,13.50
2018-01-15T04:35:07.049Z,13.83
2018-01-15T04:37:34.562Z,13.00
2018-01-15T04:40:03.147Z,13.13
2018-01-15T04:42:30.660Z,10.83
2018-01-15T04:44:58.281Z,12.00
2018-01-15T04:47:25.806Z,11.40
2018-01-15T04:49:53.451Z,10.23
2018-01-15T04:52:21.090Z,11.33
2018-01-15T04:54:48.664Z,10.17
2018-01-15T04:57:16.276Z,11.60
2018-01-15T04:59:43.804Z,10.83
2018-01-15T05:02:12.256Z,10.27
2018-01-15T05:04:39.816Z,12.00
2018-01-15T05:07:07.416Z,13.53
2018-01-15T05:09:35.960Z,11.33
2018-01-15T05:12:03.515Z,10.87
2018-01-15T05:14:31.205Z,12.17
2018-01-15T05:16:59.629Z,11.43
2018-01-15T05:19:27.283Z,12.00
2018-01-15T05:21:54.913Z,11.20
2018-01-15T05:24:23.276Z,10.07
2018-01-15T05:26:50.807Z,9.53
2018-01-15T05:29:18.402Z,10.47
2018-01-15T05:31:45.919Z,9.90
2018-01-15T05:34:13.505Z,9.70
2018-01-15T05:36:41.035Z,9.20
2018-01-15T05:39:08.532Z,9.73
2018-01-15T05:41:36.029Z,10.40
2018-01-15T05:44:03.602Z,8.87
2018-01-15T05:46:31.224Z,9.80
2018-01-15T05:48:58.837Z,10.03
2018-01-15T05:51:26.432Z,10.07
2018-01-15T05:53:53.958Z,10.00
2018-01-15T05:56:21.523Z,9.33
2018-01-15T05:58:49.134Z,9.30
2018-01-15T06:01:17.413Z,9.90
2018-01-15T06:03:44.901Z,10.33
2018-01-15T06:06:12.378Z,8.30
2018-01-15T06:08:39.843Z,10.03
2018-01-15T06:11:07.322Z,9.80
2018-01-15T06:13:34.794Z,9.50
2018-01-15T06:16:03.040Z,10.47
2018-01-15T06:18:31.271Z,9.83
2018-01-15T06:20:58.757Z,10.27
2018-01-15T06:23:26.215Z,8.57
2018-01-15T06:25:53.683Z,9.87
2018-01-15T06:28:21.153Z,9.70
2018-01-15T06:30:48.634Z,9.47
2018-01-15T06:33:16.870Z,10.57
2018-01-15T06:35:44.353Z,12.23
2018-01-15T06:38:11.824Z,11.33
2018-01-15T06:40:40.074Z,11.20
2018-01-15T06:43:07.546Z,9.87
2018-01-15T06:45:35.032Z,10.33
2018-01-15T06:48:03.262Z,10.90
2018-01-15T06:50:30.742Z,10.27
2018-01-15T06:52:58.219Z,10.03
2018-01-15T06:55:26.467Z,9.77
2018-01-15T06:57:53.931Z,10.50
2018-01-15T07:00:21.417Z,10.20
2018-01-15T07:02:49.654Z,10.17
2018-01-15T07:05:17.131Z,10.67
2018-01-15T07:07:44.594Z,11.00
2018-01-15T07:10:12.845Z,9.70
2018-01-15T07:12:40.310Z,11.23
2018-01-15T07:15:07.802Z,10.37
2018-01-15T07:17:36.033Z,10.83
2018-01-15T07:20:03.517Z,10.10
2018-01-15T07:22:30.994Z,11.67
2018-01-15T07:24:59.245Z,10.97
2018-01-15T07:27:26.722Z,10.53
2018-01-15T07:29:54.977Z,10.80
2018-01-15T07:32:22.462Z,11.87
2018-01-15T07:34:50.694Z,11.50
2018-01-15T07:37:18.171Z,11.13
2018-01-15T07:39:45.649Z,11.07
2018-01-15T07:42:13.889Z,12.17
2018-01-15T07:44:41.375Z,10.90
2018-01-15T07:47:08.859Z,10.80
2018-01-15T07:49:36.351Z,11.07
2018-01-15T07:52:03.828Z,11.10
2018-01-15T07:54:31.297Z,11.70
2018-01-15T07:56:58.792Z,10.53
2018-01-15T07:59:26.255Z,11.10
2018-01-15T08:01:53.739Z,10.50
2018-01-15T08:04:21.215Z,10.60
2018-01-15T08:06:48.694Z,10.80
2018-01-15T08:09:16.153Z,10.40
2018-01-15T08:11:43.634Z,12.53
2018-01-15T08:14:11.096Z,11.03
2018-01-15T08:16:38.574Z,12.30
2018-01-15T08:19:06.044Z,11.93
2018-01-15T08:21:33.518Z,12.23
2018-01-15T08:24:00.990Z,11.30
2018-01-15T08:26:28.466Z,11.70
2018-01-15T08:28:56.693Z,11.20
2018-01-15T08:31:24.178Z,13.60
2018-01-15T08:33:51.641Z,13.27
2018-01-15T08:36:19.110Z,11.30
2018-01-15T08:38:46.574Z,12.40
2018-01-15T08:41:14.822Z,12.10
2018-01-15T08:43:42.287Z,13.43
2018-01-15T08:46:09.758Z,13.60
2018-01-15T08:48:37.236Z,12.37
2018-01-15T08:51:05.478Z,13.17
2018-01-15T08:53:32.954Z,13.80
2018-01-15T08:56:00.467Z,12.40
2018-01-15T08:58:27.938Z,12.43
2018-01-15T09:00:55.428Z,13.37
2018-01-15T09:03:22.899Z,12.67
2018-01-15T09:05:50.362Z,12.50
2018-01-15T09:08:18.585Z,11.03
2018-01-15T09:10:46.065Z,12.97
2018-01-15T09:13:13.545Z,11.00
2018-01-15T09:15:41.800Z,11.63
2018-01-15T09:18:09.257Z,10.27
2018-01-15T09:20:36.739Z,12.27
2018-01-15T09:23:04.968Z,12.47
2018-01-15T09:25:32.446Z,13.60
2018-01-15T09:27:59.934Z,12.33
2018-01-15T09:30:28.175Z,12.07
2018-01-15T09:32:55.653Z,12.43
2018-01-15T09:35:23.128Z,12.13
2018-01-15T09:37:51.396Z,12.50
2018-01-15T09:40:18.850Z,12.73
2018-01-15T09:42:47.082Z,11.63
2018-01-15T09:45:14.568Z,10.70
2018-01-15T09:47:42.029Z,11.80
2018-01-15T09:50:09.504Z,11.80
2018-01-15T09:52:37.744Z,10.60
2018-01-15T09:55:05.228Z,10.33
2018-01-15T09:57:32.705Z,10.53
2018-01-15T10:00:00.959Z,12.20
2018-01-15T10:02:28.431Z,9.57
2018-01-15T10:04:56.666Z,10.57
2018-01-15T10:07:24.150Z,11.23
2018-01-15T10:09:51.624Z,10.23
2018-01-15T10:12:19.873Z,11.47
2018-01-15T10:14:47.346Z,10.10
2018-01-15T10:17:14.826Z,9.67
2018-01-15T10:19:43.062Z,11.50
2018-01-15T10:22:10.549Z,9.97
2018-01-15T10:24:38.006Z,11.30
2018-01-15T10:27:05.492Z,11.80
2018-01-15T10:29:32.944Z,10.33
2018-01-15T10:32:00.423Z,10.53
2018-01-15T10:34:27.893Z,11.63
2018-01-15T10:36:56.185Z,10.50
2018-01-15T10:39:24.414Z,11.20
2018-01-15T10:41:51.906Z,11.70
2018-01-15T10:44:19.365Z,11.00
2018-01-15T10:46:46.850Z,10.10
2018-01-15T10:49:14.330Z,11.03
2018-01-15T10:51:41.793Z,10.20
2018-01-15T10:54:10.039Z,10.47
2018-01-15T10:56:37.518Z,11.10
2018-01-15T10:59:04.989Z,10.73
2018-01-15T11:01:33.240Z,10.00
2018-01-15T11:04:00.709Z,10.23
2018-01-15T11:06:28.945Z,10.03
2018-01-15T11:08:56.410Z,10.10
2018-01-15T11:11:23.901Z,10.27
2018-01-15T11:13:51.348Z,8.97
2018-01-15T11:16:18.836Z,10.23
2018-01-15T11:18:47.065Z,11.53
2018-01-15T11:21:14.544Z,10.20
2018-01-15T11:23:42.013Z,9.80
2018-01-15T11:26:09.492Z,11.20
2018-01-15T11:28:37.713Z,9.67
2018-01-15T11:31:05.200Z,10.50
2018-01-15T11:33:32.667Z,9.73
2018-01-15T11:36:00.914Z,8.87
2018-01-15T11:38:29.146Z,10.23
2018-01-15T11:40:56.627Z,9.23
2018-01-15T11:43:24.106Z,8.73
2018-01-15T11:45:51.568Z,9.77
2018-01-15T11:48:19.046Z,8.77
2018-01-15T11:50:46.515Z,9.13
2018-01-15T11:53:14.755Z,8.77
2018-01-15T11:55:42.229Z,8.73
2018-01-15T11:58:09.707Z,8.90
2018-01-15T12:00:37.939Z,8.67
2018-01-15T12:03:05.411Z,9.27
2018-01-15T12:05:33.651Z,8.70
2018-01-15T12:08:01.127Z,9.07
2018-01-15T12:10:28.590Z,9.20
2018-01-15T12:12:56.057Z,8.90
2018-01-15T12:15:24.289Z,10.90
2018-01-15T12:17:51.767Z,11.60
2018-01-15T12:20:19.235Z,11.60
2018-01-15T12:22:47.877Z,11.50
2018-01-15T12:25:15.358Z,11.53
2018-01-15T12:27:42.840Z,12.20
2018-01-15T12:30:10.307Z,11.63
2018-01-15T12:32:37.788Z,11.07
2018-01-15T12:35:05.265Z,11.83
2018-01-15T12:37:33.510Z,11.70
2018-01-15T12:40:00.981Z,12.13
2018-01-15T12:42:28.455Z,11.77
2018-01-15T12:44:56.702Z,10.13
2018-01-15T12:47:24.176Z,11.40
2018-01-15T12:49:51.650Z,12.17
2018-01-15T12:52:19.897Z,11.77
2018-01-15T12:54:47.372Z,10.30
2018-01-15T12:57:14.856Z,11.67
2018-01-15T12:59:42.315Z,10.80
2018-01-15T13:02:09.789Z,12.40
2018-01-15T13:04:37.272Z,11.13
2018-01-15T13:07:04.742Z,12.50
2018-01-15T13:09:32.216Z,12.10
2018-01-15T13:11:59.702Z,11.53
2018-01-15T13:14:27.938Z,10.70
2018-01-15T13:16:55.409Z,12.10
2018-01-15T13:19:22.896Z,12.63
2018-01-15T13:21:51.136Z,12.70
2018-01-15T13:24:18.609Z,12.20
2018-01-15T13:26:46.865Z,12.47
2018-01-15T13:29:14.347Z,12.90
2018-01-15T13:31:42.588Z,10.90
2018-01-15T13:34:10.066Z,12.00
2018-01-15T13:36:37.529Z,10.23
2018-01-15T13:39:05.011Z,10.27
2018-01-15T13:41:33.246Z,10.43
2018-01-15T13:44:00.719Z,10.67
2018-01-15T13:46:28.186Z,11.00
2018-01-15T13:48:55.649Z,10.97
2018-01-15T13:51:23.894Z,12.60
2018-01-15T13:53:51.365Z,13.60
2018-01-15T13:56:18.855Z,13.57
2018-01-15T13:58:46.308Z,13.17
2018-01-15T14:01:14.548Z,13.63
2018-01-15T14:03:42.799Z,11.50
2018-01-15T14:06:10.278Z,11.50
2018-01-15T14:08:37.763Z,12.27
2018-01-15T14:11:05.222Z,12.87
2018-01-15T14:13:32.709Z,11.97
2018-01-15T14:16:00.952Z,12.97
2018-01-15T14:18:28.417Z,13.13
2018-01-15T14:20:55.881Z,14.90
2018-01-15T14:23:24.120Z,14.30
2018-01-15T14:25:52.357Z,14.03
2018-01-15T14:28:19.839Z,15.10
2018-01-15T14:30:47.360Z,16.30
2018-01-15T14:33:14.810Z,14.90
2018-01-15T14:35:43.038Z,15.87
2018-01-15T14:38:10.513Z,14.47
2018-01-15T14:40:38.027Z,14.40
2018-01-15T14:43:05.505Z,13.90
2018-01-15T14:45:32.988Z,14.20
2018-01-15T14:48:00.478Z,13.37
2018-01-15T14:50:28.710Z,14.30
2018-01-15T14:52:56.191Z,13.70
2018-01-15T14:55:23.659Z,12.60
2018-01-15T14:57:51.138Z,12.70
2018-01-15T15:00:19.364Z,14.27
2018-01-15T15:02:46.847Z,13.60
2018-01-15T15:05:14.323Z,11.67
2018-01-15T15:07:42.563Z,17.67
2018-01-15T15:10:10.031Z,33.50
2018-01-15T15:12:37.514Z,26.30
2018-01-15T15:15:05.873Z,15.40
2018-01-15T15:17:33.222Z,17.33
2018-01-15T15:20:00.696Z,14.07
2018-01-15T15:22:28.177Z,15.33
2018-01-15T15:24:56.411Z,13.07
2018-01-15T15:27:23.890Z,14.87
2018-01-15T15:29:51.371Z,10.77
2018-01-15T15:32:19.600Z,10.03
2018-01-15T15:34:47.083Z,10.50
2018-01-15T15:37:14.559Z,10.37
2018-01-15T15:39:42.810Z,11.27
2018-01-15T15:42:10.285Z,11.30
2018-01-15T15:44:38.543Z,10.30
2018-01-15T15:47:06.014Z,10.33
2018-01-15T15:49:33.505Z,10.27
2018-01-15T15:52:00.964Z,10.10
2018-01-15T15:54:28.428Z,10.60
2018-01-15T15:56:55.898Z,10.07
2018-01-15T15:59:23.381Z,9.43
2018-01-15T16:01:50.861Z,10.30
2018-01-15T16:04:25.677Z,9.80
2018-01-15T16:06:53.151Z,7.80
2018-01-15T16:09:20.616Z,8.00
2018-01-15T16:11:48.845Z,7.20
2018-01-15T16:14:16.334Z,8.10
2018-01-15T16:16:43.794Z,8.73
2018-01-15T16:19:11.275Z,7.67
2018-01-15T16:21:39.509Z,9.20
2018-01-15T16:24:06.983Z,9.10
2018-01-15T16:26:34.463Z,8.80
2018-01-15T16:29:02.718Z,9.80
2018-01-15T16:31:30.181Z,9.33
2018-01-15T16:33:57.653Z,9.87
2018-01-15T16:36:25.879Z,8.10
2018-01-15T16:38:53.361Z,9.40
2018-01-15T16:41:20.836Z,8.67
2018-01-15T16:43:48.355Z,8.90
2018-01-15T16:46:15.836Z,8.50
2018-01-15T16:48:43.319Z,8.70
2018-01-15T16:51:11.556Z,9.63
2018-01-15T16:53:39.043Z,9.57
2018-01-15T16:56:06.510Z,10.17
2018-01-15T16:58:34.755Z,9.00
2018-01-15T17:01:02.226Z,9.23
2018-01-15T17:03:29.707Z,9.73
2018-01-15T17:05:57.157Z,9.03
2018-01-15T17:08:24.638Z,9.70
2018-01-15T17:10:52.118Z,9.33
2018-01-15T17:13:19.607Z,8.70
2018-01-15T17:15:47.065Z,9.30
2018-01-15T17:18:14.547Z,8.97
2018-01-15T17:20:42.019Z,10.13
2018-01-15T17:23:10.261Z,8.67
2018-01-15T17:25:37.725Z,8.67
2018-01-15T17:28:05.190Z,9.33
2018-01-15T17:30:32.668Z,9.57
2018-01-15T17:33:00.910Z,9.37
2018-01-15T17:35:28.398Z,9.50
2018-01-15T17:37:56.639Z,8.77
2018-01-15T17:40:24.106Z,8.83
2018-01-15T17:42:52.323Z,9.50
2018-01-15T17:45:20.566Z,9.20
2018-01-15T17:47:48.026Z,9.90
2018-01-15T17:50:15.513Z,10.40
2018-01-15T17:52:43.757Z,9.90
2018-01-15T17:55:11.246Z,9.30
2018-01-15T17:57:39.482Z,9.60
2018-01-15T18:00:06.953Z,9.23
2018-01-15T18:02:34.444Z,10.30
2018-01-15T18:05:02.694Z,11.23
2018-01-15T18:07:30.158Z,9.70
2018-01-15T18:09:57.655Z,9.03
2018-01-15T18:12:25.126Z,10.10
2018-01-15T18:14:52.598Z,9.27
2018-01-15T18:17:20.106Z,9.77
2018-01-15T18:19:48.378Z,12.20
2018-01-15T18:22:16.614Z,10.07
2018-01-15T18:24:44.866Z,10.77
2018-01-15T18:27:12.334Z,11.10
2018-01-15T18:29:39.811Z,11.40
2018-01-15T18:32:07.289Z,13.57
2018-01-15T18:34:34.766Z,12.60
2018-01-15T18:37:02.994Z,12.90
2018-01-15T18:39:30.481Z,12.20
2018-01-15T18:41:57.973Z,11.47
2018-01-15T18:44:26.225Z,13.43
2018-01-15T18:46:53.698Z,13.23
2018-01-15T18:49:21.988Z,12.00
2018-01-15T18:51:49.422Z,14.40
2018-01-15T18:54:17.678Z,13.30
2018-01-15T18:56:45.156Z,12.60
2018-01-15T18:59:13.402Z,13.03
2018-01-15T19:01:40.879Z,11.50
2018-01-15T19:04:08.369Z,13.37
2018-01-15T19:06:35.837Z,12.30
2018-01-15T19:09:03.325Z,11.43
2018-01-15T19:11:30.798Z,12.37
2018-01-15T19:13:59.042Z,13.13
2018-01-15T19:16:26.514Z,12.07
2018-01-15T19:18:53.994Z,13.20
2018-01-15T19:21:21.471Z,14.17
2018-01-15T19:23:48.954Z,12.90
2018-01-15T19:26:17.217Z,13.07
2018-01-15T19:28:45.459Z,14.00
2018-01-15T19:31:12.947Z,13.60
2018-01-15T19:33:41.191Z,13.00
2018-01-15T19:36:14.366Z,12.93
2018-01-15T19:38:41.834Z,13.00
2018-01-15T19:41:09.314Z,12.27
2018-01-15T19:43:42.522Z,12.77
2018-01-15T19:49:16.495Z,12.07
2018-01-15T19:51:49.665Z,14.03
2018-01-15T19:54:22.941Z,12.97
2018-01-15T19:59:57.686Z,10.30
2018-01-15T20:02:30.876Z,10.00
2018-01-15T20:05:04.084Z,9.70
2018-01-15T20:07:38.015Z,8.80
2018-01-15T20:10:11.195Z,9.47
2018-01-15T20:12:38.678Z,9.13
2018-01-15T20:15:06.165Z,9.13
2018-01-15T20:17:33.675Z,9.83
2018-01-15T20:20:01.136Z,8.87
2018-01-15T20:22:28.598Z,8.90
2018-01-15T20:24:56.079Z,8.53
2018-01-15T20:27:23.538Z,8.40
2018-01-15T20:29:51.019Z,8.27
2018-01-15T20:32:18.496Z,6.27
2018-01-15T20:34:45.954Z,7.17
2018-01-15T20:37:13.422Z,7.00
2018-01-15T20:39:41.667Z,6.03
2018-01-15T20:42:09.137Z,6.73
2018-01-15T20:44:36.608Z,5.17
2018-01-15T20:47:04.870Z,6.73
2018-01-15T20:49:32.357Z,7.33
2018-01-15T20:51:59.840Z,7.50
2018-01-15T20:54:27.311Z,6.63
2018-01-15T20:56:54.781Z,7.47
2018-01-15T20:59:22.250Z,6.83
2018-01-15T21:01:49.726Z,7.03
2018-01-15T21:04:17.174Z,7.67
2018-01-15T21:06:44.656Z,7.23
2018-01-15T21:09:12.882Z,5.80
2018-01-15T21:11:40.368Z,5.70
2018-01-15T21:14:07.830Z,6.80
2018-01-15T21:16:35.303Z,5.20
2018-01-15T21:19:03.529Z,5.40
2018-01-15T21:21:31.001Z,4.83
2018-01-15T21:23:58.452Z,4.30
2018-01-15T21:26:25.925Z,3.80
2018-01-15T21:28:53.402Z,3.50
2018-01-15T21:31:20.883Z,3.93
2018-01-15T21:33:49.101Z,2.97
2018-01-15T21:36:16.594Z,3.30
2018-01-15T21:38:44.050Z,2.53
2018-01-15T21:41:11.529Z,2.90
2018-01-15T21:43:39.748Z,2.70
2018-01-15T21:46:07.236Z,2.70
2018-01-15T21:48:34.694Z,2.70
2018-01-15T21:51:02.179Z,2.83
2018-01-15T21:53:30.399Z,2.73
2018-01-15T21:55:57.871Z,2.90
2018-01-15T21:58:25.331Z,2.53
2018-01-15T22:00:52.813Z,2.57
2018-01-15T22:03:20.283Z,2.30
2018-01-15T22:05:48.554Z,2.20
2018-01-15T22:08:16.787Z,2.80
2018-01-15T22:10:44.264Z,2.17
2018-01-15T22:13:11.720Z,2.20
2018-01-15T22:15:39.222Z,2.40
2018-01-15T22:18:06.700Z,1.77
2018-01-15T22:20:34.162Z,1.77
2018-01-15T22:23:01.647Z,2.30
2018-01-15T22:25:29.118Z,1.33
2018-01-15T22:27:56.604Z,1.63
2018-01-15T22:30:24.840Z,2.00
2018-01-15T22:32:52.316Z,2.10
2018-01-15T22:35:19.774Z,2.27
2018-01-15T22:37:47.252Z,1.80
2018-01-15T22:40:15.478Z,1.53
2018-01-15T22:42:42.941Z,1.60
2018-01-15T22:45:10.418Z,1.70
2018-01-15T22:47:37.898Z,1.57
2018-01-15T22:50:06.140Z,1.33
2018-01-15T22:52:33.602Z,1.23
2018-01-15T22:55:01.063Z,1.70
2018-01-15T22:57:28.539Z,1.10
2018-01-15T22:59:56.002Z,1.50
2018-01-15T23:02:23.479Z,1.30
2018-01-15T23:04:51.711Z,1.13
2018-01-15T23:07:19.177Z,1.10
2018-01-15T23:09:46.655Z,1.20
2018-01-15T23:12:14.126Z,1.10
2018-01-15T23:14:42.350Z,0.63
2018-01-15T23:17:09.834Z,1.17
2018-01-15T23:19:37.292Z,0.97
2018-01-15T23:22:04.762Z,1.10
2018-01-15T23:24:32.990Z,1.10
2018-01-15T23:27:00.466Z,1.13
2018-01-15T23:29:27.929Z,1.20
2018-01-15T23:31:55.396Z,1.00
2018-01-15T23:34:22.863Z,1.30
2018-01-15T23:36:50.324Z,1.83
2018-01-15T23:39:17.789Z,1.50
2018-01-15T23:41:46.025Z,1.53
2018-01-15T23:44:13.498Z,1.23
2018-01-15T23:46:40.970Z,1.10
2018-01-15T23:49:08.435Z,1.03
2018-01-15T23:51:35.918Z,1.20
2018-01-15T23:54:03.390Z,1.20
2018-01-15T23:56:30.853Z,1.20
2018-01-15T23:58:58.314Z,1.17
